createdAt,value
2022-08-18T00:04:58.345Z,99441.09
2022-08-18T00:07:31.547Z,99440.06
2022-08-18T00:10:02.853Z,99440.06
2022-08-18T00:12:39.370Z,99435.91
2022-08-18T00:15:12.867Z,99434.72
2022-08-18T00:17:44.165Z,99434.72
2022-08-18T00:20:17.657Z,99431.90
2022-08-18T00:22:49.663Z,99431.97
2022-08-18T00:25:21.159Z,99434.98
2022-08-18T00:27:51.689Z,99427.73
2022-08-18T00:30:22.838Z,99427.73
2022-08-18T00:32:56.237Z,99431.18
2022-08-18T00:35:36.029Z,99431.61
2022-08-18T00:38:08.459Z,99436.66
2022-08-18T00:40:43.830Z,99446.98
2022-08-18T00:43:25.988Z,99443.16
2022-08-18T00:45:56.530Z,99443.16
2022-08-18T00:48:28.300Z,99444.58
2022-08-18T00:51:01.698Z,99451.05
2022-08-18T00:53:37.905Z,99451.66
2022-08-18T00:56:11.535Z,99451.66
2022-08-18T00:58:53.097Z,99452.28
2022-08-18T01:01:26.365Z,99450.67
2022-08-18T01:04:02.327Z,99450.88
2022-08-18T01:06:41.579Z,99443.45
2022-08-18T01:09:12.263Z,99443.22
2022-08-18T01:11:42.739Z,99443.22
2022-08-18T01:14:14.934Z,99442.20
2022-08-18T01:16:56.617Z,99444.84
2022-08-18T01:19:23.803Z,99437.98
2022-08-18T01:21:57.147Z,99437.98
2022-08-18T01:24:30.553Z,99440.24
2022-08-18T01:27:01.735Z,99431.97
2022-08-18T01:29:38.095Z,99431.97
2022-08-18T01:32:10.298Z,99425.13
2022-08-18T01:34:40.869Z,99432.98
2022-08-18T01:37:11.333Z,99428.55
2022-08-18T01:41:23.961Z,99424.09
2022-08-18T01:42:15.914Z,99422.88
2022-08-18T01:44:47.641Z,99422.88
2022-08-18T01:47:19.511Z,99427.11
2022-08-18T01:49:49.926Z,99424.70
2022-08-18T01:52:22.223Z,99425.67
2022-08-18T01:54:53.163Z,99422.45
2022-08-18T01:57:24.203Z,99422.45
2022-08-18T01:59:55.119Z,99419.86
2022-08-18T02:02:28.749Z,99419.86
2022-08-18T02:05:02.058Z,99423.09
2022-08-18T02:07:36.418Z,99427.73
2022-08-18T02:10:12.192Z,99421.89
2022-08-18T02:12:42.715Z,99421.89
2022-08-18T02:15:13.519Z,99425.52
2022-08-18T02:17:46.429Z,99425.52
2022-08-18T02:20:19.141Z,99425.55
2022-08-18T02:22:51.851Z,99425.55
2022-08-18T02:25:22.459Z,99418.89
2022-08-18T02:27:53.081Z,99418.30
2022-08-18T02:30:23.842Z,99418.30
2022-08-18T02:32:54.237Z,99421.29
2022-08-18T02:35:24.947Z,99421.29
2022-08-18T02:37:55.469Z,99423.72
2022-08-18T02:40:25.923Z,99425.72
2022-08-18T02:42:56.641Z,99428.39
2022-08-18T02:45:27.261Z,99429.98
2022-08-18T02:47:57.769Z,99431.02
2022-08-18T02:50:28.299Z,99438.67
2022-08-18T02:52:58.804Z,99436.42
2022-08-18T02:55:29.258Z,99432.61
2022-08-18T02:57:59.745Z,99436.82
2022-08-18T03:00:30.324Z,99446.55
2022-08-18T03:03:00.832Z,99446.55
2022-08-18T03:05:31.336Z,99448.97
2022-08-18T03:08:01.985Z,99454.80
2022-08-18T03:10:34.184Z,99454.80
2022-08-18T03:13:05.297Z,99453.61
2022-08-18T03:15:35.909Z,99453.61
2022-08-18T03:18:06.437Z,99455.41
2022-08-18T03:20:36.974Z,99450.17
2022-08-18T03:23:10.026Z,99450.17
2022-08-18T03:25:49.354Z,99453.76
2022-08-18T03:28:19.763Z,99453.76
2022-08-18T03:30:50.293Z,99459.00
2022-08-18T03:33:21.792Z,99447.30
2022-08-18T03:35:54.088Z,99447.30
2022-08-18T03:38:24.487Z,99451.71
2022-08-18T03:40:56.394Z,99451.71
2022-08-18T03:43:51.424Z,99457.75
2022-08-18T03:46:04.281Z,99451.30
2022-08-18T03:48:34.791Z,99460.14
2022-08-18T03:51:07.084Z,99458.92
2022-08-18T03:53:38.688Z,99458.11
2022-08-18T03:56:14.411Z,99458.11
2022-08-18T03:58:49.934Z,99460.33
2022-08-18T04:01:26.322Z,99463.33
2022-08-18T04:03:58.174Z,99464.52
2022-08-18T04:06:34.583Z,99466.69
2022-08-18T04:09:07.758Z,99464.03
2022-08-18T04:11:39.463Z,99456.44
2022-08-18T04:14:12.828Z,99458.75
2022-08-18T04:16:45.318Z,99458.75
2022-08-18T04:19:22.670Z,99460.14
2022-08-18T04:21:52.270Z,99460.14
2022-08-18T04:24:23.178Z,99457.45
2022-08-18T04:26:53.622Z,99457.45
2022-08-18T04:29:24.123Z,99457.66
2022-08-18T04:31:55.332Z,99457.66
2022-08-18T04:34:33.637Z,99452.58
2022-08-18T04:37:04.193Z,99450.20
2022-08-18T04:39:35.354Z,99455.48
2022-08-18T04:42:06.102Z,99465.84
2022-08-18T04:44:37.432Z,99465.84
2022-08-18T04:47:09.088Z,99466.98
2022-08-18T04:49:39.897Z,99469.53
2022-08-18T04:52:37.404Z,99472.28
2022-08-18T04:54:43.291Z,99469.78
2022-08-18T04:57:16.279Z,99472.47
2022-08-18T04:59:49.400Z,99469.70
2022-08-18T05:02:21.782Z,99473.56
2022-08-18T05:04:52.274Z,99470.89
2022-08-18T05:07:23.103Z,99470.89
2022-08-18T05:09:53.685Z,99474.04
2022-08-18T05:12:26.267Z,99474.04
2022-08-18T05:14:57.551Z,99473.88
2022-08-18T05:17:29.959Z,99469.47
2022-08-18T05:20:01.876Z,99478.00
2022-08-18T05:22:38.291Z,99481.84
2022-08-18T05:25:10.780Z,99479.12
2022-08-18T05:27:43.281Z,99484.61
2022-08-18T05:30:13.971Z,99493.31
2022-08-18T05:32:49.095Z,99494.24
2022-08-18T05:35:30.065Z,99497.27
2022-08-18T05:38:21.422Z,99490.31
2022-08-18T05:41:13.696Z,99496.38
2022-08-18T05:43:51.481Z,99498.95
2022-08-18T05:46:21.952Z,99498.95
2022-08-18T05:48:53.505Z,99490.55
2022-08-18T05:51:27.761Z,99495.81
2022-08-18T05:53:58.901Z,99493.06
2022-08-18T05:56:32.200Z,99494.75
2022-08-18T05:59:02.941Z,99494.75
2022-08-18T06:01:42.463Z,99491.24
2022-08-18T06:04:18.520Z,99495.50
2022-08-18T06:06:50.299Z,99493.45
2022-08-18T06:09:29.971Z,99493.45
2022-08-18T06:12:03.340Z,99488.84
2022-08-18T06:14:35.741Z,99497.77
2022-08-18T06:17:30.195Z,99493.34
2022-08-18T06:20:23.205Z,99501.51
2022-08-18T06:23:33.037Z,99501.51
2022-08-18T06:26:26.939Z,99507.94
2022-08-18T06:29:18.235Z,99517.12
2022-08-18T06:32:08.206Z,99517.12
2022-08-18T06:34:54.530Z,99514.69
2022-08-18T06:37:28.257Z,99514.69
2022-08-18T06:39:58.782Z,99515.02
2022-08-18T06:42:30.107Z,99527.80
2022-08-18T06:45:09.593Z,99532.05
2022-08-18T06:47:58.223Z,99531.30
2022-08-18T06:50:34.559Z,99531.30
2022-08-18T06:53:08.104Z,99522.73
2022-08-18T06:55:44.103Z,99530.45
2022-08-18T06:58:21.384Z,99523.94
2022-08-18T07:01:08.649Z,99529.03
2022-08-18T07:03:43.145Z,99521.43
2022-08-18T07:06:22.852Z,99521.43
2022-08-18T07:08:56.787Z,99524.45
2022-08-18T07:11:30.857Z,99521.98
2022-08-18T07:14:22.433Z,99513.03
2022-08-18T07:17:01.779Z,99521.76
2022-08-18T07:19:33.346Z,99521.76
2022-08-18T07:22:17.027Z,99513.45
2022-08-18T07:24:51.890Z,99511.53
2022-08-18T07:27:25.156Z,99511.53
2022-08-18T07:30:07.464Z,99514.98
2022-08-18T07:32:51.224Z,99516.28
2022-08-18T07:35:27.987Z,99525.38
2022-08-18T07:38:41.040Z,99522.69
2022-08-18T07:40:53.717Z,99516.62
2022-08-18T07:43:27.066Z,99511.14
2022-08-18T07:46:00.564Z,99523.22
2022-08-18T07:48:38.579Z,99512.48
2022-08-18T07:51:21.124Z,99526.33
2022-08-18T07:54:04.269Z,99526.33
2022-08-18T07:57:04.307Z,99519.03
2022-08-18T07:59:52.433Z,99515.00
2022-08-18T08:02:42.126Z,99515.00
2022-08-18T08:05:37.735Z,99518.53
2022-08-18T08:08:25.081Z,99513.65
2022-08-18T08:11:09.788Z,99514.78
2022-08-18T08:13:55.250Z,99505.68
2022-08-18T08:16:35.974Z,99505.68
2022-08-18T08:19:12.143Z,99504.89
2022-08-18T08:21:53.004Z,99497.73
2022-08-18T08:24:35.428Z,99489.63
2022-08-18T08:27:11.430Z,99489.63
2022-08-18T08:29:51.280Z,99499.50
2022-08-18T08:32:26.999Z,99491.41
2022-08-18T08:35:14.065Z,99483.07
2022-08-18T08:37:56.766Z,99483.07
2022-08-18T08:40:30.758Z,99485.31
2022-08-18T08:43:06.923Z,99480.23
2022-08-18T08:45:51.908Z,99470.45
2022-08-18T08:48:25.208Z,99470.45
2022-08-18T08:51:15.009Z,99467.36
2022-08-18T08:53:51.904Z,99473.09
2022-08-18T08:56:25.394Z,99465.11
2022-08-18T08:59:07.345Z,99472.73
2022-08-18T09:01:57.017Z,99468.48
2022-08-18T09:05:07.365Z,99469.59
2022-08-18T09:10:20.991Z,99465.02
2022-08-18T09:13:00.307Z,99472.05
2022-08-18T09:15:51.798Z,99466.13
2022-08-18T09:18:55.285Z,99466.13
2022-08-18T09:21:34.035Z,99470.27
2022-08-18T09:24:30.512Z,99470.27
2022-08-18T09:27:15.631Z,99464.47
2022-08-18T09:30:00.987Z,99460.59
2022-08-18T09:32:44.388Z,99460.59
2022-08-18T09:41:03.597Z,99473.61
2022-08-18T09:43:50.579Z,99461.05
2022-08-18T09:46:53.916Z,99461.00
2022-08-18T09:49:27.222Z,99464.66
2022-08-18T09:52:02.169Z,99464.66
2022-08-18T09:54:36.009Z,99458.98
2022-08-18T09:57:13.751Z,99460.14
2022-08-18T10:00:09.734Z,99457.28
2022-08-18T10:02:48.713Z,99452.22
2022-08-18T10:05:22.466Z,99452.22
2022-08-18T10:08:11.524Z,99458.17
2022-08-18T10:11:02.722Z,99456.36
2022-08-18T10:13:49.522Z,99452.85
2022-08-18T10:16:25.772Z,99460.64
2022-08-18T10:19:11.718Z,99465.67
2022-08-18T10:21:59.871Z,99465.67
2022-08-18T10:24:37.035Z,99463.55
2022-08-18T10:27:11.075Z,99457.20
2022-08-18T10:29:53.853Z,99447.27
2022-08-18T10:32:27.385Z,99445.84
2022-08-18T10:34:59.570Z,99445.84
2022-08-18T10:37:41.803Z,99445.78
2022-08-18T10:40:21.303Z,99456.25
2022-08-18T10:43:45.237Z,99465.28
2022-08-18T10:46:24.204Z,99465.59
2022-08-18T10:48:31.019Z,99463.77
2022-08-18T10:54:09.410Z,99460.95
2022-08-18T10:56:46.407Z,99474.13
2022-08-18T10:59:41.490Z,99477.34
2022-08-18T11:02:30.248Z,99460.04
2022-08-18T11:05:03.460Z,99467.60
2022-08-18T11:07:35.821Z,99473.83
2022-08-18T11:10:30.807Z,99473.83
2022-08-18T11:13:16.471Z,99480.03
2022-08-18T11:16:03.455Z,99492.92
2022-08-18T11:21:44.078Z,99494.12
2022-08-18T11:24:29.547Z,99497.98
2022-08-18T11:29:43.054Z,99475.05
2022-08-18T11:32:28.449Z,99475.05
2022-08-18T11:35:07.769Z,99466.60
2022-08-18T11:37:49.788Z,99434.78
2022-08-18T11:41:09.087Z,99434.78
2022-08-18T11:43:13.504Z,99432.53
2022-08-18T11:45:49.681Z,99414.28
2022-08-18T11:51:31.741Z,99416.19
2022-08-18T11:54:16.652Z,99416.19
2022-08-18T11:56:47.158Z,99431.41
2022-08-18T11:59:53.605Z,99431.41
2022-08-18T12:02:02.173Z,99431.89
2022-08-18T12:04:41.244Z,99450.17
2022-08-18T12:07:20.927Z,99450.17
2022-08-18T12:12:49.986Z,99443.38
2022-08-18T12:15:24.858Z,99443.38
2022-08-18T12:17:56.011Z,99433.22
2022-08-18T12:20:27.968Z,99430.98
2022-08-18T12:23:01.616Z,99431.98
2022-08-18T12:25:32.360Z,99420.93
2022-08-18T12:28:02.891Z,99438.28
2022-08-18T12:30:33.514Z,99443.20
2022-08-18T12:33:12.343Z,99443.20
2022-08-18T12:35:43.199Z,99455.48
2022-08-18T12:38:14.595Z,99462.00
2022-08-18T12:40:46.788Z,99462.00
2022-08-18T12:43:20.187Z,99459.61
2022-08-18T12:46:08.353Z,99471.71
2022-08-18T12:48:42.250Z,99488.00
2022-08-18T12:54:10.468Z,99492.13
2022-08-18T13:00:29.549Z,99501.69
2022-08-18T13:03:00.073Z,99497.30
2022-08-18T13:05:31.210Z,99497.30
2022-08-18T13:08:08.642Z,99468.05
2022-08-18T13:10:46.657Z,99448.95
2022-08-18T13:13:17.395Z,99441.52
2022-08-18T13:15:58.575Z,99420.81
2022-08-18T13:18:28.603Z,99407.44
2022-08-18T13:20:54.937Z,99407.44
2022-08-18T13:23:25.899Z,99403.13
2022-08-18T13:26:01.231Z,99403.06
2022-08-18T13:28:35.649Z,99412.67
2022-08-18T13:31:05.547Z,99412.67
2022-08-18T13:33:57.010Z,99425.91
2022-08-18T13:36:13.153Z,99436.67
2022-08-18T13:38:54.695Z,99436.67
2022-08-18T13:41:23.412Z,99456.20
2022-08-18T13:43:54.726Z,99446.75
2022-08-18T13:46:30.960Z,99450.96
2022-08-18T13:48:57.366Z,99450.96
2022-08-18T13:51:28.777Z,99458.94
2022-08-18T13:54:18.722Z,99466.17
2022-08-18T13:56:32.858Z,99464.42
2022-08-18T13:59:03.351Z,99464.42
2022-08-18T14:01:45.140Z,99471.45
2022-08-18T14:04:12.588Z,99474.48
2022-08-18T14:06:51.090Z,99474.48
2022-08-18T14:09:19.888Z,99463.58
2022-08-18T14:11:51.256Z,99456.89
2022-08-18T14:14:19.606Z,99468.14
2022-08-18T14:16:50.422Z,99468.14
2022-08-18T14:19:26.736Z,99472.88
2022-08-18T14:22:01.009Z,99474.30
2022-08-18T14:24:33.296Z,99474.30
2022-08-18T14:27:07.916Z,99473.33
2022-08-18T14:29:45.635Z,99479.98
2022-08-18T14:32:18.187Z,99480.16
2022-08-18T14:34:50.726Z,99487.01
2022-08-18T14:37:20.044Z,99490.89
2022-08-18T14:39:54.033Z,99487.34
2022-08-18T14:42:41.457Z,99486.63
2022-08-18T14:45:17.105Z,99486.63
2022-08-18T14:47:29.959Z,99482.56
2022-08-18T14:50:06.116Z,99482.56
2022-08-18T14:52:48.932Z,99498.06
2022-08-18T14:55:19.567Z,99490.59
2022-08-18T14:57:50.015Z,99490.59
2022-08-18T15:00:21.072Z,99493.98
2022-08-18T15:06:27.399Z,99491.21
2022-08-18T15:08:57.958Z,99493.71
2022-08-18T15:11:32.035Z,99504.75
2022-08-18T15:14:04.431Z,99504.70
2022-08-18T15:16:38.571Z,99503.06
2022-08-18T15:22:46.447Z,99511.86
2022-08-18T15:25:29.355Z,99518.54
2022-08-18T15:28:00.298Z,99523.55
2022-08-18T15:30:31.866Z,99523.55
2022-08-18T15:33:03.304Z,99526.82
2022-08-18T15:35:35.971Z,99530.56
2022-08-18T15:38:11.791Z,99532.06
2022-08-18T15:40:59.084Z,99530.89
2022-08-18T15:43:31.504Z,99527.41
2022-08-18T15:46:03.714Z,99527.41
2022-08-18T15:48:34.681Z,99525.50
2022-08-18T15:54:50.289Z,99510.30
2022-08-18T15:57:35.230Z,99510.30
2022-08-18T15:59:49.134Z,99507.45
2022-08-18T16:08:51.671Z,99508.92
2022-08-18T16:11:29.550Z,99501.39
2022-08-18T16:13:57.583Z,99501.34
2022-08-18T16:16:47.216Z,99501.53
2022-08-18T16:19:17.631Z,99485.86
2022-08-18T16:21:48.549Z,99485.86
2022-08-18T16:24:19.190Z,99484.64
2022-08-18T16:26:50.124Z,99480.59
2022-08-18T16:29:22.790Z,99479.84
2022-08-18T16:31:53.106Z,99481.80
2022-08-18T16:34:30.446Z,99480.73
2022-08-18T16:40:27.988Z,99486.69
2022-08-18T16:42:58.761Z,99489.66
2022-08-18T16:48:35.441Z,99489.06
2022-08-18T17:01:18.702Z,99513.02
2022-08-18T17:06:27.518Z,99522.25
2022-08-18T17:15:10.641Z,99526.06
2022-08-18T17:17:44.100Z,99540.45
2022-08-18T17:20:17.725Z,99542.92
2022-08-18T17:22:49.342Z,99542.96
2022-08-18T17:25:22.830Z,99542.96
2022-08-18T17:28:09.978Z,99529.64
2022-08-18T17:30:39.095Z,99529.64
2022-08-18T17:33:12.752Z,99525.25
2022-08-18T17:36:06.615Z,99525.25
2022-08-18T17:38:46.120Z,99524.06
2022-08-18T17:41:23.904Z,99528.55
2022-08-18T17:43:56.497Z,99525.91
2022-08-18T17:46:35.410Z,99529.77
2022-08-18T17:49:24.081Z,99532.62
2022-08-18T17:51:56.545Z,99538.28
2022-08-18T17:55:03.717Z,99520.33
2022-08-18T17:57:39.144Z,99520.33
2022-08-18T18:00:17.041Z,99535.06
2022-08-18T18:02:48.277Z,99532.23
2022-08-18T18:05:21.322Z,99523.42
2022-08-18T18:08:18.154Z,99523.42
2022-08-18T18:11:04.265Z,99511.69
2022-08-18T18:13:25.189Z,99512.55
2022-08-18T18:16:24.430Z,99512.55
2022-08-18T18:19:03.608Z,99523.45
2022-08-18T18:22:00.338Z,99517.02
2022-08-18T18:24:16.884Z,99516.98
2022-08-18T18:26:54.095Z,99516.98
2022-08-18T18:29:29.031Z,99521.42
2022-08-18T18:32:05.089Z,99506.89
2022-08-18T18:34:47.294Z,99490.72
2022-08-18T18:37:31.631Z,99490.72
2022-08-18T18:40:05.424Z,99479.02
2022-08-18T18:42:37.181Z,99462.88
2022-08-18T18:45:10.269Z,99462.88
2022-08-18T18:48:06.141Z,99447.53
2022-08-18T18:50:49.411Z,99448.78
2022-08-18T18:53:30.828Z,99445.59
2022-08-18T18:59:23.507Z,99437.98
2022-08-18T19:02:29.495Z,99435.44
2022-08-18T19:05:20.175Z,99432.77
2022-08-18T19:08:06.366Z,99435.59
2022-08-18T19:10:45.128Z,99452.79
2022-08-18T19:13:32.422Z,99453.22
2022-08-18T19:16:04.797Z,99464.22
2022-08-18T19:22:02.225Z,99463.83
2022-08-18T19:24:24.137Z,99459.46
2022-08-18T19:26:57.598Z,99459.46
2022-08-18T19:29:31.391Z,99471.91
2022-08-18T19:32:18.013Z,99471.91
2022-08-18T19:34:51.489Z,99472.34
2022-08-18T19:37:38.271Z,99472.34
2022-08-18T19:59:11.472Z,99475.89
2022-08-18T20:01:46.969Z,99475.89
2022-08-18T20:04:48.405Z,99469.78
2022-08-18T20:07:55.797Z,99470.28
2022-08-18T20:10:54.919Z,99470.28
2022-08-18T20:13:43.223Z,99475.56
2022-08-18T20:16:21.233Z,99467.71
2022-08-18T20:18:52.665Z,99470.93
2022-08-18T20:21:31.915Z,99468.53
2022-08-18T20:24:07.829Z,99460.08
2022-08-18T20:26:41.357Z,99457.06
2022-08-18T20:29:14.874Z,99458.19
2022-08-18T20:31:48.445Z,99457.98
2022-08-18T20:34:21.531Z,99456.18
2022-08-18T20:36:53.611Z,99454.23
2022-08-18T20:39:51.708Z,99468.36
2022-08-18T20:42:25.282Z,99464.32
2022-08-18T20:45:01.664Z,99476.27
2022-08-18T20:47:38.180Z,99476.27
2022-08-18T20:53:40.716Z,99469.44
2022-08-18T20:56:32.595Z,99468.81
2022-08-18T20:59:00.796Z,99473.59
2022-08-18T21:01:32.849Z,99476.05
2022-08-18T21:04:03.389Z,99485.36
2022-08-18T21:09:30.921Z,99485.78
2022-08-18T21:12:01.402Z,99484.56
2022-08-18T21:14:32.054Z,99485.39
2022-08-18T21:17:08.761Z,99485.39
2022-08-18T21:19:41.194Z,99490.63
2022-08-18T21:22:12.674Z,99494.86
2022-08-18T21:24:45.489Z,99492.05
2022-08-18T21:27:35.738Z,99488.20
2022-08-18T21:30:20.928Z,99495.06
2022-08-18T21:32:52.417Z,99494.27
2022-08-18T21:35:32.130Z,99497.48
2022-08-18T21:38:08.948Z,99496.47
2022-08-18T21:40:48.026Z,99495.06
2022-08-18T21:46:32.297Z,99501.34
2022-08-18T21:49:04.377Z,99501.34
2022-08-18T21:52:05.002Z,99509.20
2022-08-18T21:54:36.278Z,99509.20
2022-08-18T21:57:40.318Z,99500.73
2022-08-18T22:00:28.333Z,99503.55
2022-08-18T22:03:20.880Z,99505.39
2022-08-18T22:11:51.983Z,99489.03
2022-08-18T22:14:14.206Z,99495.70
2022-08-18T22:16:47.066Z,99495.70
2022-08-18T22:19:41.123Z,99485.83
2022-08-18T22:22:11.833Z,99485.83
2022-08-18T22:24:44.103Z,99484.61
2022-08-18T22:27:17.441Z,99478.77
2022-08-18T22:29:54.111Z,99486.42
2022-08-18T22:32:24.875Z,99481.20
2022-08-18T22:34:55.427Z,99488.28
2022-08-18T22:37:28.990Z,99481.59
2022-08-18T22:40:04.678Z,99473.95
2022-08-18T22:42:35.201Z,99473.95
2022-08-18T22:45:08.624Z,99465.31
2022-08-18T22:47:43.719Z,99465.71
2022-08-18T22:50:13.273Z,99473.36
2022-08-18T22:52:46.681Z,99473.36
2022-08-18T22:55:22.021Z,99457.02
2022-08-18T22:57:56.342Z,99457.66
2022-08-18T23:00:25.553Z,99455.23
2022-08-18T23:02:56.307Z,99457.47
2022-08-18T23:05:27.156Z,99461.30
2022-08-18T23:07:57.536Z,99461.30
2022-08-18T23:10:28.409Z,99461.27
2022-08-18T23:13:03.760Z,99463.72
2022-08-18T23:15:31.694Z,99466.13
2022-08-18T23:18:02.067Z,99466.53
2022-08-18T23:20:32.481Z,99459.67
2022-08-18T23:23:04.677Z,99461.31
2022-08-18T23:25:35.297Z,99461.52
2022-08-18T23:28:05.646Z,99452.45
2022-08-18T23:30:37.592Z,99471.59
2022-08-18T23:33:08.583Z,99471.59
2022-08-18T23:35:41.164Z,99465.77
2022-08-18T23:38:12.607Z,99468.78
2022-08-18T23:40:48.480Z,99467.98
2022-08-18T23:43:19.634Z,99475.05
2022-08-18T23:45:50.413Z,99476.88
2022-08-18T23:48:20.923Z,99468.98
2022-08-18T23:50:51.344Z,99471.22
2022-08-18T23:53:21.723Z,99463.98
2022-08-18T23:55:52.165Z,99471.22
2022-08-18T23:58:22.522Z,99467.39
